• Join FlightAware (Why Join?)
  • Login
  • US Flag 
09:42PM EDT


 

Airport Tracker/Info


-or-


 

Live Flight TrackerFlight Track Log ✈ AVN10 ✈ 13-Sep-2013 ✈ NVVV / VLI - YSSY / SYD

Flight Track Log - Related Links

Times and Time Zones

All times are in EDT time to prevent confusion due to time zone crossing. See the AVN10 flight status page for this flight to view local times or setup timezone preferences in your user account.

Time Position Orientation Groundspeed Altitude Reporting Facility
EDT Latitude Longitude Course Direction KTS MPH feet Rate Location/Type
03:55PM -17.8852 168.1199 226° Southwest  Level FlightAware Approximate
03:56PM -17.9471 168.0532 226° Southwest  Level FlightAware Approximate
03:57PM -18.0090 167.9865 226° Southwest  Level FlightAware Approximate
03:58PM -18.0709 167.9196 226° Southwest  Level FlightAware Approximate
03:59PM -18.1327 167.8528 226° Southwest  Level FlightAware Approximate
04:00PM -18.1945 167.7859 226° Southwest  Level FlightAware Approximate
04:01PM -18.2563 167.7189 226° Southwest  Level FlightAware Approximate
04:02PM -18.3181 167.6519 226° Southwest  Level FlightAware Approximate
04:03PM -18.3799 167.5849 226° Southwest  Level FlightAware Approximate
04:04PM -18.4416 167.5178 226° Southwest  Level FlightAware Approximate
04:05PM -18.5033 167.4507 226° Southwest  Level FlightAware Approximate
04:06PM -18.5650 167.3835 226° Southwest  Level FlightAware Approximate
04:07PM -18.6266 167.3162 226° Southwest  Level FlightAware Approximate
04:08PM -18.6883 167.2489 226° Southwest  Level FlightAware Approximate
04:09PM -18.7499 167.1816 226° Southwest  Level FlightAware Approximate
04:10PM -18.8115 167.1142 226° Southwest  Level FlightAware Approximate
04:11PM -18.8730 167.0468 226° Southwest  Level FlightAware Approximate
04:12PM -18.9346 166.9793 226° Southwest  Level FlightAware Approximate
04:13PM -18.9961 166.9118 226° Southwest  Level FlightAware Approximate
04:14PM -19.0576 166.8442 226° Southwest  Level FlightAware Approximate
04:15PM -19.1190 166.7766 226° Southwest  Level FlightAware Approximate
04:16PM -19.1805 166.7089 226° Southwest  Level FlightAware Approximate
04:17PM -19.2419 166.6411 226° Southwest  Level FlightAware Approximate
04:18PM -19.3033 166.5733 226° Southwest  Level FlightAware Approximate
04:19PM -19.3646 166.5055 226° Southwest  Level FlightAware Approximate
04:20PM -19.4260 166.4376 226° Southwest  Level FlightAware Approximate
04:21PM -19.4873 166.3697 226° Southwest  Level FlightAware Approximate
04:22PM -19.5486 166.3017 226° Southwest  Level FlightAware Approximate
04:23PM -19.6098 166.2336 226° Southwest  Level FlightAware Approximate
04:24PM -19.6711 166.1655 226° Southwest  Level FlightAware Approximate
04:25PM -19.7323 166.0974 226° Southwest  Level FlightAware Approximate
04:26PM -19.7935 166.0292 226° Southwest  Level FlightAware Approximate
04:27PM -19.8546 165.9609 226° Southwest  Level FlightAware Approximate
04:28PM -19.9158 165.8926 226° Southwest  Level FlightAware Approximate
04:29PM -19.9769 165.8243 226° Southwest  Level FlightAware Approximate
04:30PM -20.0380 165.7559 226° Southwest  Level FlightAware Approximate
04:31PM -20.0990 165.6874 226° Southwest  Level FlightAware Approximate
04:32PM -20.1600 165.6189 226° Southwest  Level FlightAware Approximate
04:33PM -20.2211 165.5503 227° Southwest  Level FlightAware Approximate
04:34PM -20.2820 165.4817 227° Southwest  Level FlightAware Approximate
04:35PM -20.3430 165.4130 227° Southwest  Level FlightAware Approximate
04:36PM -20.4039 165.3443 227° Southwest  Level FlightAware Approximate
04:37PM -20.4719 165.2836 212° Southwest  Level Estimated
04:38PM -20.5424 165.2262 217° Southwest  Level FlightAware Approximate
04:39PM -20.6129 165.1687 217° Southwest  Level FlightAware Approximate
04:40PM -20.6834 165.1112 217° Southwest  Level FlightAware Approximate
04:41PM -20.7539 165.0536 217° Southwest  Level FlightAware Approximate
04:42PM -20.8243 164.9960 217° Southwest  Level FlightAware Approximate
04:43PM -20.8947 164.9383 217° Southwest  Level FlightAware Approximate
04:44PM -20.9651 164.8806 217° Southwest  Level FlightAware Approximate
04:44PM -22.0557 163.4468 222° Southwest 38,000  Level Aus ATC (Calculated)
04:46PM -22.1739 163.3541 216° Southwest  Level FlightAware Approximate
04:47PM -22.2377 163.3039 216° Southwest  Level FlightAware Approximate
04:47PM -22.2966 163.1644 222° Southwest 38,000  Level Aus ATC (Calculated)
04:49PM -22.4151 163.0721 216° Southwest  Level FlightAware Approximate
04:49PM -22.4418 162.9934 222° Southwest 38,000  Level Aus ATC (Calculated)
04:50PM -22.6118 162.7925 222° Southwest 38,000  Level Aus ATC (Calculated)
04:51PM -22.5691 162.8947 216° Southwest  Level FlightAware Approximate
04:52PM -22.6851 162.7360 215° Southwest  Level FlightAware Approximate
04:53PM -22.7489 162.6869 215° Southwest  Level FlightAware Approximate
04:54PM -22.8127 162.6377 215° Southwest  Level FlightAware Approximate
04:55PM -22.8764 162.5884 215° Southwest  Level FlightAware Approximate
04:56PM -22.9401 162.5392 215° Southwest  Level FlightAware Approximate
04:57PM -23.0039 162.4898 215° Southwest  Level FlightAware Approximate
04:58PM -23.0676 162.4405 215° Southwest  Level FlightAware Approximate
04:59PM -23.1312 162.3910 216° Southwest  Level FlightAware Approximate
05:00PM -23.1949 162.3416 216° Southwest  Level FlightAware Approximate
05:01PM -23.2585 162.2921 216° Southwest  Level FlightAware Approximate
05:02PM -23.3222 162.2425 216° Southwest  Level FlightAware Approximate
05:03PM -23.3858 162.1929 216° Southwest  Level FlightAware Approximate
05:04PM -23.4494 162.1432 216° Southwest  Level FlightAware Approximate
05:05PM -23.5130 162.0935 216° Southwest  Level FlightAware Approximate
05:06PM -23.5765 162.0438 216° Southwest  Level FlightAware Approximate
05:07PM -23.6401 161.9940 216° Southwest  Level FlightAware Approximate
05:07PM -23.9811 161.1440 220° Southwest 38,000  Level Aus ATC (Calculated)
05:08PM -23.7036 161.9441 216° Southwest  Level FlightAware Approximate
05:09PM -24.0685 161.0816 213° Southwest  Level FlightAware Approximate
05:10PM -24.1340 161.0348 213° Southwest  Level FlightAware Approximate
05:11PM -24.1996 160.9880 213° Southwest  Level FlightAware Approximate
05:12PM -24.2651 160.9410 213° Southwest  Level FlightAware Approximate
05:14PM -24.4561 160.8039 213° Southwest  Level FlightAware Approximate
05:16PM -24.5270 160.7529 213° Southwest  Level FlightAware Approximate
05:17PM -24.5924 160.7057 213° Southwest  Level FlightAware Approximate
05:18PM -24.6578 160.6585 213° Southwest  Level FlightAware Approximate
05:19PM -24.7232 160.6113 213° Southwest  Level FlightAware Approximate
05:20PM -24.7886 160.5639 213° Southwest  Level FlightAware Approximate
05:21PM -24.8540 160.5166 213° Southwest  Level FlightAware Approximate
05:22PM -24.9193 160.4692 213° Southwest  Level FlightAware Approximate
05:23PM -24.9847 160.4217 213° Southwest  Level FlightAware Approximate
05:24PM -25.0500 160.3742 213° Southwest  Level FlightAware Approximate
05:25PM -25.1153 160.3266 213° Southwest  Level FlightAware Approximate
05:26PM -25.1806 160.2790 213° Southwest  Level FlightAware Approximate
05:27PM -25.2459 160.2314 213° Southwest  Level FlightAware Approximate
05:28PM -25.3112 160.1837 213° Southwest  Level FlightAware Approximate
05:29PM -25.3764 160.1359 213° Southwest  Level FlightAware Approximate
05:30PM -25.4417 160.0881 213° Southwest  Level FlightAware Approximate
05:31PM -25.5069 160.0402 214° Southwest  Level FlightAware Approximate
05:32PM -25.5721 159.9923 214° Southwest  Level FlightAware Approximate
05:33PM -25.6373 159.9443 214° Southwest  Level FlightAware Approximate
05:34PM -25.7025 159.8963 214° Southwest  Level FlightAware Approximate
05:35PM -25.7676 159.8482 214° Southwest  Level FlightAware Approximate
05:36PM -25.8328 159.8001 214° Southwest  Level FlightAware Approximate
05:37PM -25.8979 159.7519 214° Southwest  Level FlightAware Approximate
05:38PM -25.9630 159.7036 214° Southwest  Level FlightAware Approximate
05:39PM -26.0281 159.6553 214° Southwest  Level FlightAware Approximate
05:40PM -26.0932 159.6070 214° Southwest  Level FlightAware Approximate
05:41PM -26.1583 159.5586 214° Southwest  Level FlightAware Approximate
05:42PM -26.2233 159.5101 214° Southwest  Level FlightAware Approximate
05:43PM -26.2883 159.4616 214° Southwest  Level FlightAware Approximate
05:44PM -26.3534 159.4131 214° Southwest  Level FlightAware Approximate
05:45PM -26.4184 159.3645 214° Southwest  Level FlightAware Approximate
05:46PM -26.4834 159.3158 214° Southwest  Level FlightAware Approximate
05:47PM -26.5483 159.2670 214° Southwest  Level FlightAware Approximate
05:48PM -26.6133 159.2183 214° Southwest  Level FlightAware Approximate
05:49PM -26.6782 159.1694 214° Southwest  Level FlightAware Approximate
05:50PM -26.7431 159.1205 214° Southwest  Level FlightAware Approximate
05:51PM -26.8080 159.0716 214° Southwest  Level FlightAware Approximate
05:52PM -26.8729 159.0226 214° Southwest  Level FlightAware Approximate
05:53PM -26.9378 158.9735 214° Southwest  Level FlightAware Approximate
05:54PM -27.0026 158.9244 214° Southwest  Level FlightAware Approximate
05:55PM -27.0674 158.8752 214° Southwest  Level FlightAware Approximate
05:56PM -27.1323 158.8260 214° Southwest  Level FlightAware Approximate
05:57PM -27.1971 158.7767 214° Southwest  Level FlightAware Approximate
05:58PM -27.2619 158.7274 214° Southwest  Level FlightAware Approximate
05:59PM -27.3266 158.6780 214° Southwest  Level FlightAware Approximate
06:00PM -27.3914 158.6285 214° Southwest  Level FlightAware Approximate
06:01PM -27.4561 158.5790 214° Southwest  Level FlightAware Approximate
06:02PM -27.5208 158.5294 214° Southwest  Level FlightAware Approximate
06:03PM -27.5855 158.4798 214° Southwest  Level FlightAware Approximate
06:03PM -27.4178 157.9141 214° Southwest 360 414 38,000  Level Aus ATC (RADAR)
06:04PM -27.4632 157.8885 207° Southwest 362 417 38,000  Level Aus ATC (RADAR)
06:04PM -27.5236 157.8548 206° Southwest 363 418 38,000  Level Aus ATC (RADAR)
06:07PM -27.7490 157.7253 207° Southwest 366 421 38,000  Level Aus ATC (RADAR)
06:08PM -27.8703 157.6559 207° Southwest 366 421 38,000  Level Aus ATC (RADAR)
06:08PM -27.8930 157.6430 207° Southwest 366 421 38,000  Level Aus ATC (RADAR)
06:10PM -28.0182 157.5694 207° Southwest 359 413 38,000  Level Aus ATC (RADAR)
06:12PM -28.2279 157.4482 207° Southwest 363 418 38,000  Level Aus ATC (RADAR)
06:13PM -28.3266 157.3914 207° Southwest 368 423 38,000  Level Aus ATC (RADAR)
06:13PM -28.3496 157.3784 206° Southwest 368 423 38,000  Level Aus ATC (RADAR)
06:15PM -28.4766 157.3034 207° Southwest 366 421 38,000  Level Aus ATC (RADAR)
06:15PM -28.4993 157.2901 207° Southwest 367 422 38,000  Level Aus ATC (RADAR)
06:17PM -28.6985 157.1740 207° Southwest 372 428 38,000  Level Aus ATC (RADAR)
06:18PM -28.7890 157.1203 207° Southwest 369 425 38,000  Level Aus ATC (RADAR)
06:18PM -28.8120 157.1068 207° Southwest 369 425 38,000  Level Aus ATC (RADAR)
06:19PM -28.8813 157.0662 207° Southwest 372 428 38,000  Level Aus ATC (RADAR)
06:20PM -28.9119 157.0482 207° Southwest 372 428 38,000  Level Aus ATC (RADAR)
06:20PM -28.9643 157.0168 208° Southwest 369 425 38,000  Level Aus ATC (RADAR)
06:21PM -29.0337 156.9759 207° Southwest 372 428 38,000  Level Aus ATC (RADAR)
06:22PM -29.1567 156.9031 207° Southwest 372 428 38,000  Level Aus ATC (RADAR)
06:23PM -29.1949 156.8803 208° Southwest 372 428 38,000  Level Aus ATC (RADAR)
06:23PM -29.2262 156.8618 207° Southwest 376 433 38,000  Level Aus ATC (RADAR)
06:24PM -29.2801 156.8296 207° Southwest 375 432 38,000  Level Aus ATC (RADAR)
06:24PM -29.3500 156.7882 207° Southwest 379 436 38,000  Level Aus ATC (RADAR)
06:25PM -29.4044 156.7556 208° Southwest 380 437 38,000  Level Aus ATC (RADAR)
06:25PM -29.4586 156.7231 207° Southwest 378 435 38,000  Level Aus ATC (RADAR)
06:26PM -29.5138 156.6903 207° Southwest 382 440 38,000  Level Aus ATC (RADAR)
06:27PM -29.6223 156.6252 208° Southwest 377 434 38,000 60 Level Aus ATC (RADAR)
06:28PM -29.6540 156.6060 208° Southwest 381 438 38,100 120 Climbing Aus ATC (RADAR)
06:28PM -29.6938 156.5825 207° Southwest 385 443 38,100  Level Aus ATC (RADAR)
06:29PM -29.7565 156.5446 208° Southwest 384 442 38,100  Level Aus ATC (RADAR)
06:29PM -29.8269 156.5023 208° Southwest 382 440 38,100  Level Aus ATC (RADAR)
06:30PM -29.8821 156.4689 208° Southwest 384 442 38,100  Level Aus ATC (RADAR)
06:31PM -29.9519 156.4269 208° Southwest 380 437 38,100  Level Aus ATC (RADAR)
06:31PM -29.9907 156.4033 208° Southwest 380 437 38,100 60 Level Aus ATC (RADAR)
06:32PM -30.1060 156.3333 208° Southwest 373 429 38,200 60 Climbing Aus ATC (RADAR)
06:33PM -30.1443 156.3100 208° Southwest 374 430 38,200  Level Aus ATC (RADAR)
06:33PM -30.1820 156.2871 208° Southwest 371 427 38,200  Level Aus ATC (RADAR)
06:34PM -30.2342 156.2555 208° Southwest 367 422 38,200  Level Aus ATC (RADAR)
06:34PM -30.2958 156.2179 208° Southwest 374 430 38,200  Level Aus ATC (RADAR)
06:35PM -30.3497 156.1852 208° Southwest 376 433 38,200  Level Aus ATC (RADAR)
06:36PM -30.4034 156.1526 208° Southwest 375 432 38,200  Level Aus ATC (RADAR)
06:36PM -30.4567 156.1198 208° Southwest 374 430 38,200  Level Aus ATC (RADAR)
06:37PM -30.5558 156.0593 208° Southwest 373 429 38,200  Level Aus ATC (RADAR)
06:38PM -30.5935 156.0359 208° Southwest 372 428 38,200  Level Aus ATC (RADAR)
06:38PM -30.6313 156.0125 208° Southwest 371 427 38,200  Level Aus ATC (RADAR)
06:39PM -30.6845 155.9803 208° Southwest 371 427 38,200  Level Aus ATC (RADAR)
06:39PM -30.7530 155.9383 208° Southwest 373 429 38,200  Level Aus ATC (RADAR)
06:40PM -30.8063 155.9055 208° Southwest 374 430 38,200  Level Aus ATC (RADAR)
06:41PM -30.8760 155.8652 206° Southwest 375 432 38,200  Level Aus ATC (RADAR)
06:41PM -30.9156 155.8432 205° Southwest 377 434 38,200  Level Aus ATC (RADAR)
06:42PM -30.9711 155.8123 206° Southwest 380 437 38,200  Level Aus ATC (RADAR)
06:43PM -31.0995 155.7406 206° Southwest 386 444 38,200  Level Aus ATC (RADAR)
06:44PM -31.1476 155.7138 206° Southwest 385 443 38,200  Level Aus ATC (RADAR)
06:44PM -31.2041 155.6820 206° Southwest 387 445 38,200  Level Aus ATC (RADAR)
06:45PM -31.2856 155.6362 206° Southwest 391 450 38,200  Level Aus ATC (RADAR)
06:46PM -31.3433 155.6039 206° Southwest 394 453 38,200  Level Aus ATC (RADAR)
06:46PM -31.4176 155.5621 206° Southwest 396 456 38,200  Level Aus ATC (RADAR)
06:47PM -31.4587 155.5388 206° Southwest 396 456 38,200  Level Aus ATC (RADAR)
06:48PM -31.5989 155.4595 206° Southwest 395 455 38,200  Level Aus ATC (RADAR)
06:48PM -31.6314 155.4411 206° Southwest 392 451 38,200  Level Aus ATC (RADAR)
06:49PM -31.6887 155.4085 206° Southwest 393 452 38,200  Level Aus ATC (RADAR)
06:50PM -31.7620 155.3667 206° Southwest 391 450 38,200  Level Aus ATC (RADAR)
06:50PM -31.8187 155.3345 206° Southwest 389 448 38,200  Level Aus ATC (RADAR)
06:51PM -31.8752 155.3024 206° Southwest 387 445 38,200  Level Aus ATC (RADAR)
06:52PM -31.9318 155.2701 206° Southwest 388 447 38,200  Level Aus ATC (RADAR)
06:53PM -32.0427 155.2063 206° Southwest 383 441 38,200  Level Aus ATC (RADAR)
06:53PM -32.0822 155.1841 205° Southwest 380 437 38,200  Level Aus ATC (RADAR)
06:54PM -32.1217 155.1614 206° Southwest 381 438 38,200  Level Aus ATC (RADAR)
06:54PM -32.1775 155.1295 206° Southwest 382 440 38,200  Level Aus ATC (RADAR)
06:55PM -32.2498 155.0880 206° Southwest 387 445 38,200  Level Aus ATC (RADAR)
06:55PM -32.3058 155.0560 206° Southwest 385 443 38,200  Level Aus ATC (RADAR)
06:56PM -32.3780 155.0141 206° Southwest 385 443 38,200  Level Aus ATC (RADAR)
06:57PM -32.4176 154.9911 206° Southwest 383 441 38,200  Level Aus ATC (RADAR)
06:58PM -32.5537 154.9126 206° Southwest 382 440 38,200  Level Aus ATC (RADAR)
06:58PM -32.5941 154.8891 206° Southwest 386 444 38,200  Level Aus ATC (RADAR)
06:59PM -32.6343 154.8658 206° Southwest 387 445 38,200  Level Aus ATC (RADAR)
06:59PM -32.6908 154.8332 206° Southwest 387 445 38,200  Level Aus ATC (RADAR)
07:00PM -32.7637 154.7908 206° Southwest 390 449 38,200  Level Aus ATC (RADAR)
07:01PM -32.8201 154.7575 206° Southwest 389 448 38,200  Level Aus ATC (RADAR)
07:02PM -32.8922 154.7151 206° Southwest 389 448 38,200  Level Aus ATC (RADAR)
07:02PM -32.9325 154.6913 206° Southwest 389 448 38,200  Level Aus ATC (RADAR)
07:03PM -33.0229 154.6391 206° Southwest 394 453 38,200  Level Aus ATC (RADAR)
07:03PM -33.0802 154.6054 206° Southwest 395 455 38,200  Level Aus ATC (RADAR)
07:04PM -33.1376 154.5717 206° Southwest 396 456 38,200  Level Aus ATC (RADAR)
07:05PM -33.2115 154.5277 206° Southwest 396 456 38,200  Level Aus ATC (RADAR)
07:05PM -33.2527 154.5034 206° Southwest 397 457 38,200  Level Aus ATC (RADAR)
07:06PM -33.3106 154.4693 206° Southwest 398 458 38,200  Level Aus ATC (RADAR)
07:07PM -33.4018 154.4160 206° Southwest 397 457 38,200  Level Aus ATC (RADAR)
07:08PM -33.4692 154.3098 233° Southwest 384 442 38,200  Level Aus ATC (RADAR)
07:08PM -33.4885 154.2532 248° West 370 426 38,200  Level Aus ATC (RADAR)
07:09PM -33.5052 154.2054 247° West 371 427 38,200  Level Aus ATC (RADAR)
07:09PM -33.5294 154.1392 246° West 371 427 38,200  Level Aus ATC (RADAR)
07:10PM -33.5560 154.0692 245° Southwest 359 413 38,200  Level Aus ATC (RADAR)
07:10PM -33.5798 154.0026 247° West 360 414 38,200  Level Aus ATC (RADAR)
07:11PM -33.6102 153.9170 247° West 358 412 38,200  Level Aus ATC (RADAR)
07:12PM -33.6268 153.8695 247° West 359 413 38,200  Level Aus ATC (RADAR)
07:12PM -33.6512 153.8027 246° West 361 415 38,200  Level Aus ATC (RADAR)
07:14PM -33.7054 153.6498 247° West 361 415 38,200  Level Aus ATC (RADAR)
07:14PM -33.7228 153.5964 249° West 375 432 38,200  Level Aus ATC (RADAR)
07:15PM -33.7472 153.5292 246° West 375 432 38,200  Level Aus ATC (RADAR)
07:15PM -33.7812 153.4326 247° West 377 434 38,200  Level Aus ATC (RADAR)
07:16PM -33.8047 153.3652 247° West 374 430 38,200 -240 Level Aus ATC (RADAR)
07:16PM -33.8210 153.3200 247° West 377 434 38,000  Descending FlightAware
07:17PM -33.8404 153.2648 247° West 362 417 38,200  Climbing Aus ATC (RADAR)
07:17PM -33.8450 153.2520 247° West 377 434 38,000 -300 Descending FlightAware
07:18PM -33.8680 153.1850 248° West 376 433 38,000 120 Level FlightAware
07:19PM -33.9071 153.0719 248° West 362 417 38,200 120 Climbing Aus ATC (RADAR)
07:19PM -33.9242 153.0238 247° West 363 418 38,200  Level Aus ATC (RADAR)
07:20PM -33.9478 152.9558 247° West 365 420 38,200  Level Aus ATC (RADAR)
07:20PM -33.9816 152.8590 247° West 365 420 38,200 -720 Level Aus ATC (RADAR)
07:21PM -34.0049 152.7919 247° West 365 420 37,200 -2,520 Descending Aus ATC (RADAR)
07:22PM -34.0341 152.7061 248° West 367 422 34,900 -3,120 Descending Aus ATC (RADAR)
07:22PM -34.0507 152.6575 248° West 372 428 33,600 -3,360 Descending Aus ATC (RADAR)
07:23PM -34.0778 152.5012 258° West 394 453 29,300 -3,600 Descending Aus ATC (RADAR)
07:24PM -34.0710 152.4448 278° West 402 463 27,600 -3,540 Descending Aus ATC (RADAR)
07:24PM -34.0633 152.3651 277° West 405 466 25,800 -3,000 Descending Aus ATC (RADAR)
07:25PM -34.0528 152.2589 277° West 400 460 23,500 -2,880 Descending Aus ATC (RADAR)
07:26PM -34.0454 152.1837 277° West 388 447 21,900 -2,820 Descending Aus ATC (RADAR)
07:27PM -34.0365 152.0866 276° West 389 448 19,800 -2,760 Descending Aus ATC (RADAR)
07:27PM -34.0310 152.0331 277° West 387 445 18,700 -2,700 Descending Aus ATC (RADAR)
07:28PM -34.0234 151.9588 277° West 382 440 17,100 -2,760 Descending Aus ATC (RADAR)
07:29PM -34.0107 151.8290 277° West 369 425 14,300 -2,640 Descending Aus ATC (RADAR)
07:29PM -34.0055 151.7782 277° West 363 418 13,300 -2,640 Descending Aus ATC (RADAR)
07:30PM -33.9980 151.7131 278° West 359 413 11,800 -2,100 Descending Aus ATC (RADAR)
07:30PM -33.9559 151.6329 302° West 355 409 10,500 -1,440 Descending Aus ATC (RADAR)
07:31PM -33.9202 151.5707 305° West 351 404 9,800 -1,920 Descending Aus ATC (RADAR)
07:32PM -33.8820 151.5001 303° West 356 410 8,000 -2,640 Descending Aus ATC (RADAR)
07:32PM -33.8601 151.4596 303° West 346 398 6,900 -2,700 Descending Aus ATC (RADAR)
07:33PM -33.8296 151.4021 303° West 348 400 5,300 -1,260 Descending Aus ATC (RADAR)
07:34PM -33.7699 151.2898 303° West 274 315 4,500 -780 Descending Aus ATC (RADAR)
07:34PM -33.7553 151.2574 298° West 264 304 4,000 -1,020 Descending Aus ATC (RADAR)
07:35PM -33.7588 151.2104 265° West 236 272 3,500 -780 Descending Aus ATC (RADAR)
07:36PM -33.7928 151.1729 223° Southwest 191 220 2,900 -600 Descending Aus ATC (RADAR)
07:36PM -33.8175 151.1599 204° Southwest 168 193 2,700 -600 Descending Aus ATC (RADAR)
07:37PM -33.8509 151.1628 176° South 157 181 2,100 -900 Descending Aus ATC (RADAR)
07:38PM -33.8674 151.1669 168° South 161 185 1,700 -840 Descending Aus ATC (RADAR)
07:39PM -33.9244 151.1819 168° South 134 154 600 -780 Descending Aus ATC (RADAR)
07:39PM -33.9381 151.1854 168° South 135 155 300 -840 Descending Aus ATC (RADAR)